createdAt,value
2022-12-08T00:01:09.324Z,98776.25
2022-12-08T00:11:13.481Z,98772.50
2022-12-08T00:21:15.181Z,98750.84
2022-12-08T00:31:16.843Z,98750.78
2022-12-08T00:41:39.884Z,98743.38
2022-12-08T00:51:41.312Z,98731.19
2022-12-08T01:01:44.174Z,98718.38
2022-12-08T01:11:45.787Z,98711.34
2022-12-08T01:21:47.198Z,98721.22
2022-12-08T01:31:48.604Z,98717.31
2022-12-08T01:41:50.098Z,98717.06
2022-12-08T01:52:03.146Z,98708.81
2022-12-08T02:02:04.562Z,98698.88
2022-12-08T02:12:06.185Z,98691.03
2022-12-08T02:22:11.852Z,98689.38
2022-12-08T02:32:47.276Z,98671.00
2022-12-08T02:42:55.312Z,98667.47
2022-12-08T02:52:56.700Z,98648.09
2022-12-08T03:03:13.807Z,98631.19
2022-12-08T03:13:30.627Z,98630.13
2022-12-08T03:23:32.026Z,98607.97
2022-12-08T03:33:35.737Z,98594.41
2022-12-08T03:43:37.221Z,98605.19
2022-12-08T03:53:38.682Z,98586.88
2022-12-08T04:03:40.127Z,98568.13
2022-12-08T04:13:41.664Z,98568.53
2022-12-08T04:23:43.283Z,98551.25
2022-12-08T04:33:44.922Z,98541.97
2022-12-08T04:43:46.364Z,98522.78
2022-12-08T04:53:48.280Z,98528.16
2022-12-08T05:03:49.722Z,98530.63
2022-12-08T05:13:51.082Z,98521.94
2022-12-08T05:23:52.659Z,98519.44
2022-12-08T05:33:55.112Z,98515.47
2022-12-08T05:43:58.779Z,98501.19
2022-12-08T05:54:00.157Z,98494.34
2022-12-08T06:04:02.174Z,98492.22
2022-12-08T06:14:03.729Z,98487.06
2022-12-08T06:24:05.258Z,98486.03
2022-12-08T06:34:06.739Z,98487.44
2022-12-08T06:44:08.684Z,98481.81
2022-12-08T06:54:10.062Z,98485.75
2022-12-08T07:04:11.684Z,98490.22
2022-12-08T07:14:13.087Z,98498.91
2022-12-08T07:24:14.460Z,98505.94
2022-12-08T07:34:15.907Z,98501.97
2022-12-08T07:44:19.562Z,98503.41
2022-12-08T07:54:21.120Z,98501.09
2022-12-08T08:04:22.594Z,98506.47
2022-12-08T08:14:24.108Z,98501.72
2022-12-08T08:24:25.644Z,98503.97
2022-12-08T08:34:27.143Z,98513.22
2022-12-08T08:44:28.710Z,98513.84
2022-12-08T08:54:31.039Z,98512.00
2022-12-08T09:04:32.547Z,98515.06
2022-12-08T09:14:34.028Z,98510.31
2022-12-08T09:24:35.579Z,98514.41
2022-12-08T09:34:36.967Z,98516.47
2022-12-08T09:44:51.317Z,98513.94
2022-12-08T09:54:52.807Z,98505.22
2022-12-08T10:04:55.190Z,98502.31
2022-12-08T10:15:00.920Z,98489.47
2022-12-08T10:25:16.191Z,98488.22
2022-12-08T10:35:18.664Z,98486.72
2022-12-08T10:45:24.746Z,98483.63
2022-12-08T10:55:26.399Z,98473.25
2022-12-08T11:05:34.281Z,98458.91
2022-12-08T11:15:37.716Z,98457.47
2022-12-08T11:25:39.093Z,98437.59
2022-12-08T11:35:42.793Z,98432.59
2022-12-08T11:45:44.282Z,98439.19
2022-12-08T11:55:50.229Z,98432.31
2022-12-08T12:06:38.033Z,98416.59
2022-12-08T12:16:46.253Z,98419.28
2022-12-08T12:26:55.334Z,98414.75
2022-12-08T12:36:57.796Z,98405.84
2022-12-08T12:47:02.743Z,98407.50
2022-12-08T12:57:13.081Z,98391.16
2022-12-08T13:07:22.254Z,98391.75
2022-12-08T13:17:33.764Z,98387.50
2022-12-08T13:27:39.246Z,98394.38
2022-12-08T13:37:54.362Z,98378.41
2022-12-08T13:48:23.316Z,98370.47
2022-12-08T13:58:29.248Z,98368.06
2022-12-08T14:08:59.006Z,98368.34
2022-12-08T14:18:53.580Z,98373.63
2022-12-08T14:28:55.033Z,98379.09
2022-12-08T14:38:56.487Z,98375.25
2022-12-08T14:48:58.654Z,98375.34
2022-12-08T14:59:33.410Z,98373.94
2022-12-08T15:09:34.676Z,98382.03
2022-12-08T15:19:36.093Z,98384.13
2022-12-08T15:29:37.565Z,98381.94
2022-12-08T15:39:39.123Z,98382.78
2022-12-08T15:49:40.533Z,98380.56
2022-12-08T15:59:41.932Z,98379.41
2022-12-08T16:09:43.445Z,98382.53
2022-12-08T16:19:45.253Z,98383.00
2022-12-08T16:29:48.083Z,98365.91
2022-12-08T16:40:01.437Z,98370.06
2022-12-08T16:50:08.428Z,98383.84
2022-12-08T17:00:19.566Z,98384.66
2022-12-08T17:10:23.422Z,98371.09
2022-12-08T17:20:26.078Z,98376.28
2022-12-08T17:30:27.485Z,98372.34
2022-12-08T17:40:29.050Z,98377.72
2022-12-08T17:50:30.472Z,98376.91
2022-12-08T18:00:32.014Z,98376.69
2022-12-08T18:10:33.412Z,98373.22
2022-12-08T18:20:35.087Z,98365.41
2022-12-08T18:30:36.684Z,98372.41
2022-12-08T18:40:38.336Z,98375.91
2022-12-08T18:50:42.935Z,98378.81
2022-12-08T19:00:44.362Z,98371.19
2022-12-08T19:10:45.826Z,98364.78
2022-12-08T19:20:47.196Z,98381.88
2022-12-08T19:30:48.924Z,98381.84
2022-12-08T19:41:09.190Z,98387.44
2022-12-08T19:51:10.774Z,98372.81
2022-12-08T20:01:14.367Z,98379.38
2022-12-08T20:11:16.018Z,98383.66
2022-12-08T20:21:17.763Z,98384.50
2022-12-08T20:31:25.057Z,98386.78
2022-12-08T20:41:26.748Z,98393.75
2022-12-08T20:51:31.819Z,98386.75
2022-12-08T21:01:38.562Z,98380.16
2022-12-08T21:11:40.162Z,98385.72
2022-12-08T21:21:41.932Z,98383.25
2022-12-08T21:31:43.464Z,98388.16
2022-12-08T21:42:03.879Z,98378.50
2022-12-08T21:52:05.614Z,98385.91
2022-12-08T22:02:09.995Z,98399.03
2022-12-08T22:12:14.237Z,98395.94
2022-12-08T22:22:15.631Z,98392.63
2022-12-08T22:32:17.426Z,98395.91
2022-12-08T22:42:18.983Z,98388.31
2022-12-08T22:52:20.826Z,98386.03
2022-12-08T23:02:22.370Z,98382.72
2022-12-08T23:12:23.764Z,98382.16
2022-12-08T23:22:25.386Z,98380.56
2022-12-08T23:32:27.242Z,98379.41
2022-12-08T23:42:29.971Z,98373.63
2022-12-08T23:52:31.363Z,98368.28
